Kezdőlap
METAR-TAF:

METAR-TAF

Repülőterek :

Curaçao, Holland Antillák

földrajzi szélesség: 12-12N, földrajzi hosszúság: 068-58W, magasság: 9 m

Jelenlegi meteorológiai megfigyelések

A jelentés 19 perccel ezelõtt készült, 14:00 UTC
Keleti szél 13 kt
Hőmérséklet 30°C
Páratartalom 70%
Légköri nyomás 1011 hPa
Látótávolság 10 km, vagy több
Szórványos felhőzet 2100 lábon

METAR: TNCC 231400Z 10013KT 9999 SCT021 30/24 Q1011 NOSIG

Idő: 10:19 (14:19 UTC)

Előrejelzés

A jelentés 4 órával és 49 perccel ezelõtt készült, 09:30 UTC
Az előrejelzés 23-én 12 óra UTC és 24-én 12 óra UTC között érvényes
Keleti szél 13 kt
Látótávolság 10 km, vagy több
Szórványos felhőzet 2000 lábon
Valószínűség 30% :
23-én 12 óra UTC és 23-én 14 óra UTC között ideiglenes
Látótávolság: 7000 m
Szakadozott felhőzet 1500 lábon
záporok

TAF: TNCC 230930Z 2312/2412 09013KT 9999 SCT020 PROB30 TEMPO 2312/2314 7000 SHRA BKN015

Meteorológiai megfigyelések és előrejelzések több, mint 4000 repülőtéren (METAR és TAF jelentéseket).

A térképen piros és sárga pontok jelzik az elérhető meteorológiai állomásokat.

Mozgassa az egeret a pont fölött, hogy megjelenjen az állomás neve.

Azután kattintson az időjárási megfigyelések és előrejelzések megtekintéséhez.

A térkép megváltoztatása: kattintson a fekete keresztel jelölt zöld gombra ráközelítéshez, a vonallal jelölt zöld gombra távolításhoz, vagy a zöld nyilakra a szomszédos térképek eléréséhez.


METAR-TAF: